Time;durP1;ratioP1;P1;durP2;ratioP2;P2;SDS_P1;SDS_P2;PMS_P1;PMS_P2;Temp;Humidity;BMP_temperature;BMP_pressure;BME280_temperature;BME280_humidity;BME280_pressure;Samples;Min_cycle;Max_cycle;Signal;HPM_P1;HPM_P2
2020/12/11 00:00:19;;;;;;;44.13;14.63;;;1.70;99.90;;;;;;5017822;28;20961;-71
2020/12/11 00:02:46;;;;;;;34.40;14.90;;;1.80;99.90;;;;;;5017986;28;20930;-71
2020/12/11 00:05:14;;;;;;;40.53;16.80;;;1.70;99.90;;;;;;5017854;28;20499;-71
2020/12/11 00:07:42;;;;;;;36.13;18.80;;;1.70;99.90;;;;;;5017654;28;20518;-71
2020/12/11 00:10:10;;;;;;;44.40;16.40;;;1.80;99.90;;;;;;5017258;28;20488;-71
2020/12/11 00:12:38;;;;;;;53.13;17.60;;;1.80;99.90;;;;;;5017979;28;20760;-71
2020/12/11 00:15:06;;;;;;;37.37;18.00;;;1.80;99.90;;;;;;5018206;28;20793;-70
2020/12/11 00:17:33;;;;;;;41.07;15.37;;;1.80;99.90;;;;;;5017933;28;20457;-70
2020/12/11 00:20:00;;;;;;;48.47;17.13;;;1.80;99.90;;;;;;5018224;28;20476;-70
2020/12/11 00:22:27;;;;;;;48.87;16.57;;;1.80;99.90;;;;;;5018093;28;20552;-72
2020/12/11 00:24:53;;;;;;;36.60;15.40;;;1.80;99.90;;;;;;5015502;28;20488;-69
2020/12/11 00:27:20;;;;;;;45.97;16.27;;;1.80;99.90;;;;;;5000547;28;20446;-70
2020/12/11 00:29:47;;;;;;;42.37;18.23;;;1.70;99.90;;;;;;5000594;28;20512;-69
2020/12/11 00:32:15;;;;;;;42.80;17.37;;;1.60;99.90;;;;;;5000709;28;20478;-71
2020/12/11 00:34:41;;;;;;;53.63;17.03;;;1.60;99.90;;;;;;5001051;28;20454;-71
2020/12/11 00:37:08;;;;;;;57.70;21.47;;;1.60;99.90;;;;;;5000666;28;20572;-71
2020/12/11 00:39:35;;;;;;;51.27;14.87;;;1.60;99.90;;;;;;4999850;28;20442;-71
2020/12/11 00:42:01;;;;;;;55.53;18.73;;;1.70;99.90;;;;;;5001186;28;20450;-71
2020/12/11 00:44:28;;;;;;;38.77;17.30;;;1.70;99.90;;;;;;5000556;28;20446;-70
2020/12/11 00:46:56;;;;;;;46.03;17.30;;;1.70;99.90;;;;;;5000971;28;20454;-67
2020/12/11 00:49:23;;;;;;;56.03;17.63;;;1.70;99.90;;;;;;5001220;28;20496;-70
2020/12/11 00:51:54;;;;;;;50.33;18.13;;;1.50;99.90;;;;;;5001219;28;20446;-71
2020/12/11 00:54:21;;;;;;;39.90;16.27;;;1.50;99.90;;;;;;5000939;28;20465;-70
2020/12/11 00:56:47;;;;;;;51.07;17.30;;;1.50;99.90;;;;;;5001733;28;20461;-70
2020/12/11 00:59:14;;;;;;;39.53;15.53;;;1.60;99.90;;;;;;5001818;28;20446;-71
2020/12/11 01:01:40;;;;;;;39.27;16.10;;;1.60;99.90;;;;;;5001471;28;20477;-71
2020/12/11 01:04:07;;;;;;;35.43;15.93;;;1.70;99.90;;;;;;5000922;28;20932;-70
2020/12/11 01:06:34;;;;;;;42.97;16.30;;;1.60;99.90;;;;;;5000199;28;20446;-71
2020/12/11 01:09:01;;;;;;;32.20;13.40;;;1.60;99.90;;;;;;5001098;28;20502;-72
2020/12/11 01:11:28;;;;;;;31.27;14.70;;;1.60;99.90;;;;;;5000572;28;20445;-71
2020/12/11 01:13:54;;;;;;;32.90;12.57;;;1.60;99.90;;;;;;5001225;28;20446;-70
2020/12/11 01:16:21;;;;;;;32.67;13.90;;;1.60;99.90;;;;;;5003713;28;20458;-72
2020/12/11 01:18:48;;;;;;;36.73;12.07;;;1.60;99.90;;;;;;5004984;28;20469;-71
2020/12/11 01:21:14;;;;;;;28.30;12.30;;;1.60;99.90;;;;;;5005371;28;20442;-70
2020/12/11 01:23:42;;;;;;;34.40;14.07;;;1.60;99.90;;;;;;5004895;28;20442;-71
2020/12/11 01:26:09;;;;;;;41.73;14.50;;;1.70;99.90;;;;;;5005446;28;20810;-70
2020/12/11 01:28:36;;;;;;;28.27;13.40;;;1.70;99.90;;;;;;5004824;28;20477;-70
2020/12/11 01:31:02;;;;;;;32.83;14.73;;;1.70;99.90;;;;;;5004370;28;20464;-71
2020/12/11 01:33:29;;;;;;;32.27;12.97;;;1.70;99.90;;;;;;5004388;28;20457;-70
2020/12/11 01:35:55;;;;;;;37.10;15.17;;;1.70;99.90;;;;;;5004788;28;20458;-71
2020/12/11 01:38:22;;;;;;;39.63;14.97;;;1.70;99.90;;;;;;5005117;28;20449;-70
2020/12/11 01:40:50;;;;;;;37.67;15.10;;;1.70;99.90;;;;;;5004208;28;20450;-71
2020/12/11 01:43:20;;;;;;;44.57;16.07;;;1.70;99.90;;;;;;5004459;28;20446;-71
2020/12/11 01:45:46;;;;;;;53.07;16.80;;;1.70;99.90;;;;;;5003984;28;20442;-71
2020/12/11 01:48:13;;;;;;;37.90;15.07;;;1.70;99.90;;;;;;5003922;28;20541;-71
2020/12/11 01:50:40;;;;;;;56.47;17.10;;;1.70;99.90;;;;;;5004478;28;20464;-70
2020/12/11 01:53:09;;;;;;;42.10;15.90;;;1.70;99.90;;;;;;5004783;28;20457;-71
2020/12/11 01:55:37;;;;;;;51.60;18.33;;;1.70;99.90;;;;;;5005022;28;20492;-71
2020/12/11 01:58:10;;;;;;;44.30;15.97;;;1.60;99.90;;;;;;5004620;28;20505;-71
2020/12/11 02:00:40;;;;;;;37.47;14.20;;;1.60;99.90;;;;;;5004420;28;20438;-71
2020/12/11 02:03:08;;;;;;;37.93;15.47;;;1.70;99.90;;;;;;5003715;28;20489;-70
2020/12/11 02:05:35;;;;;;;35.50;14.00;;;1.70;99.90;;;;;;5003184;28;20519;-71
2020/12/11 02:08:01;;;;;;;38.27;12.53;;;1.60;99.90;;;;;;5004856;28;20477;-71
2020/12/11 02:10:28;;;;;;;46.23;14.90;;;1.50;99.90;;;;;;5003463;28;20482;-70
2020/12/11 02:12:54;;;;;;;37.30;15.03;;;1.60;99.90;;;;;;5003268;28;20456;-71
2020/12/11 02:15:22;;;;;;;44.33;16.07;;;1.60;99.90;;;;;;5003817;28;20465;-70
2020/12/11 02:17:49;;;;;;;38.77;16.57;;;1.70;99.90;;;;;;5002599;28;20458;-72
2020/12/11 02:20:15;;;;;;;36.60;16.63;;;1.70;99.90;;;;;;5003597;28;20504;-70
2020/12/11 02:22:45;;;;;;;38.93;17.07;;;1.70;99.90;;;;;;5003367;28;20446;-71
2020/12/11 02:25:12;;;;;;;40.23;15.17;;;1.70;99.90;;;;;;5002325;28;20486;-71
2020/12/11 02:27:38;;;;;;;32.90;14.77;;;1.70;99.90;;;;;;5033447;28;20448;-71
2020/12/11 02:30:06;;;;;;;36.53;15.03;;;1.70;99.90;;;;;;5041579;28;20490;-71
2020/12/11 02:32:32;;;;;;;37.57;16.37;;;1.70;99.90;;;;;;5042349;28;20929;-71
2020/12/11 02:34:58;;;;;;;32.70;13.10;;;1.70;99.90;;;;;;5042963;28;20463;-70
2020/12/11 02:37:25;;;;;;;40.40;18.30;;;1.70;99.90;;;;;;5042658;28;20456;-71
2020/12/11 02:39:52;;;;;;;33.53;13.47;;;1.70;99.90;;;;;;5042143;28;20763;-71
2020/12/11 02:42:18;;;;;;;40.20;14.83;;;1.80;99.90;;;;;;5041784;28;20527;-71
2020/12/11 02:44:45;;;;;;;42.10;17.37;;;1.80;99.90;;;;;;5042668;28;20523;-71
2020/12/11 02:47:15;;;;;;;33.20;13.27;;;1.80;99.90;;;;;;5043043;28;20440;-72
2020/12/11 02:49:41;;;;;;;34.10;12.20;;;1.70;99.90;;;;;;5041960;28;20511;-71
2020/12/11 02:52:08;;;;;;;40.10;15.60;;;1.70;99.90;;;;;;5042108;28;20484;-71
2020/12/11 02:54:34;;;;;;;33.93;14.37;;;1.70;99.90;;;;;;5041873;28;20550;-71
2020/12/11 02:57:01;;;;;;;43.00;17.50;;;1.70;99.90;;;;;;5041236;28;20533;-71
2020/12/11 02:59:28;;;;;;;33.43;13.50;;;1.70;99.90;;;;;;5041624;28;20523;-70
2020/12/11 03:01:54;;;;;;;41.63;14.10;;;1.70;99.90;;;;;;5041678;28;20870;-70
2020/12/11 03:04:20;;;;;;;37.23;15.70;;;1.70;99.90;;;;;;5041829;28;20851;-70
2020/12/11 03:06:47;;;;;;;35.77;14.57;;;1.70;99.90;;;;;;5041961;28;20455;-70
2020/12/11 03:09:13;;;;;;;41.30;16.67;;;1.70;99.90;;;;;;5042816;28;20496;-70
2020/12/11 03:11:40;;;;;;;42.63;16.10;;;1.80;99.90;;;;;;5043034;28;20901;-71
2020/12/11 03:14:07;;;;;;;41.23;17.13;;;1.80;99.90;;;;;;5042220;28;20488;-70
2020/12/11 03:16:33;;;;;;;43.90;15.47;;;1.80;99.90;;;;;;5042112;28;20480;-71
2020/12/11 03:19:00;;;;;;;42.60;16.57;;;1.80;99.90;;;;;;5041252;28;20842;-70
2020/12/11 03:21:26;;;;;;;34.23;14.10;;;1.80;99.90;;;;;;5041682;28;20451;-70
2020/12/11 03:23:52;;;;;;;35.23;13.50;;;1.70;99.90;;;;;;5040896;28;20544;-71
2020/12/11 03:26:19;;;;;;;45.50;16.70;;;1.70;99.90;;;;;;5060324;22;20506;-71
2020/12/11 03:28:45;;;;;;;30.97;14.70;;;1.60;99.90;;;;;;5052226;22;20528;-71
2020/12/11 03:31:15;;;;;;;41.93;17.20;;;1.60;99.90;;;;;;5041763;28;20809;-71
2020/12/11 03:33:42;;;;;;;41.90;14.13;;;1.60;99.90;;;;;;5042619;28;20901;-71
2020/12/11 03:36:08;;;;;;;43.07;14.60;;;1.60;99.90;;;;;;5042231;28;20472;-71
2020/12/11 03:38:36;;;;;;;44.00;16.63;;;1.50;99.90;;;;;;5042696;28;20440;-71
2020/12/11 03:41:03;;;;;;;47.77;18.60;;;1.50;99.90;;;;;;5043107;28;20480;-71
2020/12/11 03:43:29;;;;;;;43.00;15.30;;;1.50;99.90;;;;;;5043056;28;20523;-71
2020/12/11 03:45:55;;;;;;;39.97;17.67;;;1.50;99.90;;;;;;5041636;28;20507;-71
2020/12/11 03:48:22;;;;;;;42.47;14.17;;;1.50;99.90;;;;;;5042137;28;20508;-70
2020/12/11 03:50:49;;;;;;;44.57;15.40;;;1.50;99.90;;;;;;5041395;28;20504;-70
2020/12/11 03:53:15;;;;;;;28.90;13.90;;;1.50;99.90;;;;;;5041164;28;20475;-71
2020/12/11 03:55:42;;;;;;;39.07;15.30;;;1.60;99.90;;;;;;5041014;28;20487;-71
2020/12/11 03:58:08;;;;;;;32.60;14.10;;;1.60;99.90;;;;;;5048516;28;20467;-71
2020/12/11 04:00:34;;;;;;;35.70;15.00;;;1.60;99.90;;;;;;5041384;28;20468;-71
2020/12/11 04:03:03;;;;;;;30.77;12.53;;;1.60;99.90;;;;;;5040635;28;20507;-71
2020/12/11 04:05:31;;;;;;;30.13;12.60;;;1.60;99.90;;;;;;5041431;28;20777;-70
2020/12/11 04:07:57;;;;;;;43.63;17.70;;;1.60;99.90;;;;;;5041036;28;20483;-70
2020/12/11 04:10:24;;;;;;;43.53;15.27;;;1.60;99.90;;;;;;5041803;28;20483;-71
2020/12/11 04:12:50;;;;;;;39.63;17.63;;;1.60;99.90;;;;;;5040678;28;20454;-70
2020/12/11 04:15:17;;;;;;;30.93;15.13;;;1.60;99.90;;;;;;5041438;28;20444;-70
2020/12/11 04:17:43;;;;;;;44.10;14.27;;;1.50;99.90;;;;;;5041356;28;20546;-71
2020/12/11 04:20:10;;;;;;;45.87;17.47;;;1.50;99.90;;;;;;5041080;28;20468;-69
2020/12/11 04:22:37;;;;;;;40.50;16.73;;;1.40;99.90;;;;;;5041768;28;21118;-71
2020/12/11 04:25:03;;;;;;;39.20;14.90;;;1.50;99.90;;;;;;5041106;28;20452;-71
2020/12/11 04:27:30;;;;;;;33.27;14.53;;;1.50;99.90;;;;;;5041270;28;20871;-70
2020/12/11 04:29:56;;;;;;;37.77;15.47;;;1.50;99.90;;;;;;5040574;28;20553;-71
2020/12/11 04:32:24;;;;;;;39.40;16.63;;;1.50;99.90;;;;;;5041110;28;20452;-70
2020/12/11 04:34:50;;;;;;;42.57;15.10;;;1.60;99.90;;;;;;5041914;28;20452;-73
2020/12/11 04:37:16;;;;;;;39.97;16.27;;;1.60;99.90;;;;;;5041018;28;20955;-71
2020/12/11 04:39:44;;;;;;;35.13;13.37;;;1.60;99.90;;;;;;5040476;28;20816;-70
2020/12/11 04:42:12;;;;;;;43.70;16.40;;;1.60;99.90;;;;;;5041294;28;20511;-71
2020/12/11 04:44:39;;;;;;;40.33;15.30;;;1.70;99.90;;;;;;5040023;28;20455;-70
2020/12/11 04:47:07;;;;;;;35.13;14.80;;;1.70;99.90;;;;;;5041304;28;20535;-70
2020/12/11 04:49:35;;;;;;;49.60;16.07;;;1.70;99.90;;;;;;5040936;28;20489;-70
2020/12/11 04:52:05;;;;;;;36.00;15.90;;;1.70;99.90;;;;;;5044397;28;20444;-70
2020/12/11 04:54:37;;;;;;;40.40;15.73;;;1.70;99.90;;;;;;5043696;28;20455;-70
2020/12/11 04:57:08;;;;;;;41.90;15.80;;;1.60;99.90;;;;;;5044333;28;20784;-71
2020/12/11 04:59:35;;;;;;;38.80;15.60;;;1.70;99.90;;;;;;5044452;28;20428;-71
2020/12/11 05:02:13;;;;;;;36.37;15.27;;;1.70;99.90;;;;;;5044901;28;20562;-70
2020/12/11 05:04:43;;;;;;;33.23;14.60;;;1.60;99.90;;;;;;5044589;28;20843;-70
2020/12/11 05:07:09;;;;;;;44.30;16.70;;;1.60;99.90;;;;;;5044195;28;20471;-71
2020/12/11 05:09:36;;;;;;;37.90;15.77;;;1.60;99.90;;;;;;5043454;28;20566;-73
2020/12/11 05:12:13;;;;;;;39.40;14.80;;;1.50;99.90;;;;;;5043479;28;20913;-70
2020/12/11 05:14:39;;;;;;;36.30;15.47;;;1.50;99.90;;;;;;5043817;28;20436;-71
2020/12/11 05:17:07;;;;;;;33.57;13.47;;;1.60;99.90;;;;;;5044231;28;20558;-70
2020/12/11 05:19:48;;;;;;;40.07;15.73;;;1.60;99.90;;;;;;5044885;28;20439;-70
2020/12/11 05:22:15;;;;;;;34.87;16.00;;;1.60;99.90;;;;;;5044934;28;20493;-71
2020/12/11 05:24:43;;;;;;;40.63;18.80;;;1.70;99.90;;;;;;5044845;28;20458;-70
2020/12/11 05:27:29;;;;;;;34.33;15.30;;;1.70;99.90;;;;;;5044221;28;20502;-69
2020/12/11 05:29:56;;;;;;;37.70;16.80;;;1.70;99.90;;;;;;5044293;28;20559;-71
2020/12/11 05:32:36;;;;;;;33.40;13.87;;;1.70;99.90;;;;;;5043795;28;20464;-71
2020/12/11 05:35:03;;;;;;;30.50;13.47;;;1.70;99.90;;;;;;5043814;28;20507;-70
2020/12/11 05:37:30;;;;;;;33.10;14.57;;;1.70;99.90;;;;;;5043879;28;20949;-70
2020/12/11 05:39:56;;;;;;;38.00;14.70;;;1.70;99.90;;;;;;5043771;28;20456;-71
2020/12/11 05:42:23;;;;;;;28.57;14.03;;;1.60;99.90;;;;;;5044345;28;20448;-72
2020/12/11 05:44:50;;;;;;;31.73;15.17;;;1.60;99.90;;;;;;5044650;28;20440;-70
2020/12/11 05:47:19;;;;;;;34.87;14.87;;;1.60;99.90;;;;;;5044533;28;20456;-70
2020/12/11 05:49:46;;;;;;;33.13;14.80;;;1.50;99.90;;;;;;5043951;28;20484;-70
2020/12/11 05:52:16;;;;;;;38.63;15.20;;;1.50;99.90;;;;;;5043636;28;20451;-70
2020/12/11 05:54:47;;;;;;;33.57;13.50;;;1.50;99.90;;;;;;5040508;28;20796;-70
2020/12/11 05:57:15;;;;;;;50.10;16.80;;;1.50;99.90;;;;;;5043453;28;20463;-70
2020/12/11 05:59:43;;;;;;;44.37;16.37;;;1.50;99.90;;;;;;5042634;28;20452;-71
2020/12/11 06:02:11;;;;;;;38.10;15.97;;;1.50;99.90;;;;;;5042664;28;20945;-72
2020/12/11 06:04:38;;;;;;;45.93;14.63;;;1.60;99.90;;;;;;5042863;28;20494;-70
2020/12/11 06:07:11;;;;;;;40.93;18.40;;;1.60;99.90;;;;;;5042383;28;20519;-71
2020/12/11 06:09:38;;;;;;;49.53;16.63;;;1.70;99.90;;;;;;5042127;28;20471;-71
2020/12/11 06:12:05;;;;;;;29.77;15.17;;;1.70;99.90;;;;;;5042487;28;20527;-70
2020/12/11 06:14:42;;;;;;;34.40;16.07;;;1.70;99.90;;;;;;5042843;28;20479;-72
2020/12/11 06:17:12;;;;;;;42.50;17.23;;;1.60;99.90;;;;;;5042385;28;20471;-71
2020/12/11 06:19:41;;;;;;;52.17;17.50;;;1.60;99.90;;;;;;5042373;28;20524;-71
2020/12/11 06:22:08;;;;;;;44.53;18.50;;;1.60;99.90;;;;;;5043201;28;20476;-71
2020/12/11 06:24:35;;;;;;;49.40;17.13;;;1.60;99.90;;;;;;5042536;28;20535;-71
2020/12/11 06:27:04;;;;;;;46.63;17.10;;;1.60;99.90;;;;;;5043242;28;20499;-70
2020/12/11 06:29:32;;;;;;;53.33;19.93;;;1.60;99.90;;;;;;5042220;28;20555;-71
2020/12/11 06:31:59;;;;;;;36.40;15.23;;;1.60;99.90;;;;;;5043103;28;20484;-70
2020/12/11 06:34:27;;;;;;;45.10;17.93;;;1.60;99.90;;;;;;5042873;28;20475;-70
2020/12/11 06:36:54;;;;;;;53.77;20.00;;;1.70;99.90;;;;;;5042755;28;20535;-70
2020/12/11 06:39:41;;;;;;;42.33;18.20;;;1.70;99.90;;;;;;5040900;28;20467;-70
2020/12/11 06:42:08;;;;;;;35.67;16.73;;;1.70;99.90;;;;;;5039915;28;20440;-70
2020/12/11 06:44:35;;;;;;;41.10;15.30;;;1.70;99.90;;;;;;5039756;28;20851;-71
2020/12/11 06:47:07;;;;;;;34.20;16.77;;;1.70;99.90;;;;;;5040833;28;20456;-70
2020/12/11 06:49:35;;;;;;;29.30;13.43;;;1.70;99.90;;;;;;5042771;28;20514;-70
2020/12/11 06:52:12;;;;;;;29.90;15.73;;;1.70;99.90;;;;;;5042489;28;20475;-70
2020/12/11 06:54:54;;;;;;;44.97;17.77;;;1.70;99.90;;;;;;5042017;28;20494;-70
2020/12/11 06:57:38;;;;;;;40.60;17.10;;;1.80;99.90;;;;;;5042853;28;20453;-70
2020/12/11 07:00:25;;;;;;;43.00;16.50;;;1.70;99.90;;;;;;5043448;28;20439;-70
2020/12/11 07:03:24;;;;;;;38.73;16.53;;;1.70;99.90;;;;;;5042962;28;20475;-70
2020/12/11 07:06:05;;;;;;;39.27;16.17;;;1.70;99.90;;;;;;5042976;28;20436;-70
2020/12/11 07:08:31;;;;;;;50.80;19.47;;;1.70;99.90;;;;;;5041362;28;20464;-71
2020/12/11 07:11:14;;;;;;;43.03;18.23;;;1.70;99.90;;;;;;5041311;28;20559;-70
2020/12/11 07:13:51;;;;;;;51.40;19.03;;;1.70;99.90;;;;;;5040393;28;20500;-70
2020/12/11 07:16:18;;;;;;;42.80;18.60;;;1.80;99.90;;;;;;5041315;28;20456;-70
2020/12/11 07:18:45;;;;;;;45.57;17.70;;;1.80;99.90;;;;;;5040618;28;20444;-70
2020/12/11 07:21:12;;;;;;;45.50;19.80;;;1.90;99.90;;;;;;5041120;28;20472;-69
2020/12/11 07:23:39;;;;;;;43.33;19.83;;;1.90;99.90;;;;;;5040375;28;20444;-70
2020/12/11 07:26:06;;;;;;;43.67;18.00;;;1.90;99.90;;;;;;5039552;28;20511;-71
2020/12/11 07:28:33;;;;;;;46.33;20.20;;;1.90;99.90;;;;;;5026046;28;20572;-71
2020/12/11 07:31:00;;;;;;;40.97;17.43;;;1.90;99.90;;;;;;5018190;28;20485;-71
2020/12/11 07:33:31;;;;;;;41.03;18.30;;;1.90;99.90;;;;;;5018280;28;20453;-70
2020/12/11 07:36:01;;;;;;;42.90;18.97;;;1.90;99.90;;;;;;5017756;28;20479;-70
2020/12/11 07:38:29;;;;;;;46.33;18.60;;;1.80;99.90;;;;;;5019260;28;20456;-70
2020/12/11 07:40:57;;;;;;;39.20;16.00;;;1.90;99.90;;;;;;5020477;28;20461;-70
2020/12/11 07:43:26;;;;;;;36.80;14.17;;;1.90;99.90;;;;;;5019819;28;20499;-71
2020/12/11 07:45:53;;;;;;;41.80;17.40;;;1.90;99.90;;;;;;5020289;28;20508;-71
2020/12/11 07:48:19;;;;;;;32.50;14.77;;;2.00;99.90;;;;;;5020625;28;20958;-71
2020/12/11 07:50:46;;;;;;;44.63;16.87;;;2.00;99.90;;;;;;5021677;28;21004;-71
2020/12/11 07:53:13;;;;;;;48.63;18.03;;;2.00;99.90;;;;;;5030003;28;20778;-71
2020/12/11 07:55:40;;;;;;;32.33;15.60;;;2.10;99.90;;;;;;5027176;28;20544;-71
2020/12/11 07:58:07;;;;;;;40.10;16.00;;;2.10;99.90;;;;;;5032023;28;20568;-72
2020/12/11 08:00:38;;;;;;;36.27;15.30;;;2.00;99.90;;;;;;5023571;28;20442;-71
2020/12/11 08:03:06;;;;;;;40.83;15.20;;;2.00;99.90;;;;;;5029632;28;20441;-71
2020/12/11 08:05:35;;;;;;;44.87;16.53;;;2.00;99.90;;;;;;5023015;28;20446;-71
2020/12/11 08:08:02;;;;;;;33.90;19.57;;;2.00;99.90;;;;;;5023390;28;20449;-72
2020/12/11 08:10:50;;;;;;;48.17;18.90;;;2.00;99.90;;;;;;5028789;28;20489;-71
2020/12/11 08:13:20;;;;;;;37.03;15.80;;;2.00;99.90;;;;;;5024932;28;20801;-72
2020/12/11 08:15:46;;;;;;;39.83;15.07;;;2.00;99.90;;;;;;5024499;28;20451;-72
2020/12/11 08:18:21;;;;;;;47.27;17.63;;;2.00;99.90;;;;;;5023981;28;20467;-71
2020/12/11 08:20:56;;;;;;;38.30;16.50;;;2.00;99.90;;;;;;5029874;28;20440;-72
2020/12/11 08:23:38;;;;;;;37.97;15.40;;;2.00;99.90;;;;;;5029065;28;20468;-71
2020/12/11 08:26:11;;;;;;;33.93;14.77;;;1.90;99.90;;;;;;5033859;28;20463;-72
2020/12/11 08:28:38;;;;;;;36.70;14.40;;;1.90;99.90;;;;;;5018749;28;20473;-72
2020/12/11 08:31:23;;;;;;;49.63;16.37;;;1.80;99.90;;;;;;5019072;28;21011;-72
2020/12/11 08:33:59;;;;;;;36.70;15.40;;;1.80;99.90;;;;;;5023253;28;20524;-73
2020/12/11 08:36:29;;;;;;;38.80;17.97;;;1.80;99.90;;;;;;5030118;28;20433;-73
2020/12/11 08:39:14;;;;;;;47.80;17.40;;;1.80;99.90;;;;;;5031028;28;20542;-73
2020/12/11 08:41:55;;;;;;;38.40;17.40;;;1.70;99.90;;;;;;5032326;28;20454;-72
2020/12/11 08:47:26;;;;;;;43.27;17.13;;;1.70;99.90;;;;;;5019872;28;20443;-70
2020/12/11 08:49:56;;;;;;;25.80;12.40;;;1.80;99.90;;;;;;5029814;28;20814;-73
2020/12/11 08:52:23;;;;;;;42.43;17.13;;;2.20;99.90;;;;;;5030187;28;20519;-73
2020/12/11 08:54:51;;;;;;;38.80;16.27;;;2.50;99.90;;;;;;5030165;28;20452;-74
2020/12/11 08:57:19;;;;;;;40.87;17.00;;;2.40;99.90;;;;;;5030525;28;20817;-74
2020/12/11 08:59:46;;;;;;;43.63;16.20;;;2.30;99.90;;;;;;5031400;28;20447;-72
2020/12/11 09:02:13;;;;;;;36.57;16.23;;;2.20;99.90;;;;;;5029604;28;20981;-72
2020/12/11 09:04:42;;;;;;;33.07;15.80;;;2.30;99.90;;;;;;5024721;28;20445;-73
2020/12/11 09:07:11;;;;;;;32.87;15.67;;;2.30;99.90;;;;;;5024741;28;20766;-73
2020/12/11 09:09:38;;;;;;;35.03;17.60;;;2.20;99.90;;;;;;5020623;28;20489;-74
2020/12/11 09:12:05;;;;;;;35.87;16.93;;;3.00;99.90;;;;;;5021644;28;20451;-72
2020/12/11 09:14:33;;;;;;;37.03;19.90;;;3.60;99.90;;;;;;5022995;28;20542;-77
2020/12/11 09:17:00;;;;;;;38.00;16.87;;;4.30;99.90;;;;;;5021401;28;20460;-74
2020/12/11 09:19:27;;;;;;;28.40;14.20;;;4.20;99.90;;;;;;5020753;28;20437;-75
2020/12/11 09:22:00;;;;;;;41.67;15.70;;;3.80;99.90;;;;;;5025910;28;20445;-76
2020/12/11 09:24:26;;;;;;;38.37;16.67;;;3.50;99.90;;;;;;5028376;28;20537;-75
2020/12/11 09:26:53;;;;;;;37.77;17.50;;;3.20;99.90;;;;;;5025908;28;20763;-74
2020/12/11 09:29:28;;;;;;;42.90;17.67;;;3.00;99.90;;;;;;5029360;28;20449;-75
2020/12/11 09:31:59;;;;;;;28.70;14.17;;;2.80;99.90;;;;;;5026688;28;21076;-70
2020/12/11 09:34:26;;;;;;;34.60;15.10;;;2.70;99.90;;;;;;5043721;28;20464;-70
2020/12/11 09:36:52;;;;;;;31.13;15.20;;;2.60;99.90;;;;;;5035414;28;20502;-67
2020/12/11 09:39:19;;;;;;;35.87;16.50;;;2.40;99.90;;;;;;5027739;28;20449;-67
2020/12/11 09:41:51;;;;;;;28.00;14.30;;;2.30;99.90;;;;;;5032714;28;20555;-74
2020/12/11 09:50:06;;;;;;;38.47;17.57;;;2.20;99.90;;;;;;5018487;28;20484;-68
2020/12/11 09:52:44;;;;;;;30.93;14.10;;;2.10;99.90;;;;;;5037441;28;20470;-67
2020/12/11 09:55:11;;;;;;;33.30;14.17;;;2.10;99.90;;;;;;5031546;28;20449;-71
2020/12/11 09:57:38;;;;;;;38.23;17.17;;;2.10;99.90;;;;;;5029487;28;20440;-69
2020/12/11 10:00:06;;;;;;;32.37;16.20;;;2.20;99.90;;;;;;5032846;28;20472;-67
2020/12/11 10:02:44;;;;;;;36.70;15.87;;;2.20;99.90;;;;;;5035322;28;20991;-67
2020/12/11 10:05:11;;;;;;;36.47;16.27;;;2.30;99.90;;;;;;5038916;28;20444;-72
2020/12/11 10:07:38;;;;;;;32.23;16.67;;;2.20;99.90;;;;;;5033780;28;20497;-70
2020/12/11 10:10:05;;;;;;;32.33;13.40;;;2.30;99.90;;;;;;5037246;28;20480;-69
2020/12/11 10:12:32;;;;;;;33.93;16.40;;;2.40;99.90;;;;;;5024225;28;20455;-69
2020/12/11 10:15:04;;;;;;;44.90;17.30;;;2.40;99.90;;;;;;5035677;28;20877;-64
2020/12/11 10:17:31;;;;;;;31.70;16.50;;;2.40;99.90;;;;;;5035335;28;20568;-64
2020/12/11 10:19:58;;;;;;;25.23;14.57;;;2.40;99.90;;;;;;5033277;28;20775;-75
2020/12/11 10:22:25;;;;;;;28.90;13.13;;;2.40;99.90;;;;;;5022155;28;20456;-75
2020/12/11 10:24:52;;;;;;;30.10;14.83;;;2.50;99.90;;;;;;5024923;28;20484;-73
2020/12/11 10:27:19;;;;;;;35.23;15.47;;;2.50;99.90;;;;;;5031389;28;20468;-72
2020/12/11 10:29:46;;;;;;;36.20;15.57;;;2.50;99.90;;;;;;5027364;28;20585;-73
2020/12/11 10:32:12;;;;;;;34.73;17.33;;;2.60;99.90;;;;;;5027323;28;20560;-68
2020/12/11 10:34:39;;;;;;;38.40;16.60;;;2.60;99.90;;;;;;5034617;28;20443;-71
2020/12/11 10:37:11;;;;;;;32.00;16.33;;;2.60;99.90;;;;;;5025358;28;20436;-69
2020/12/11 10:39:38;;;;;;;43.40;17.70;;;2.60;99.90;;;;;;5024704;28;20953;-70
2020/12/11 10:42:06;;;;;;;43.67;15.40;;;2.50;99.90;;;;;;5031002;28;20498;-71
2020/12/11 10:44:33;;;;;;;30.00;15.90;;;2.60;99.90;;;;;;5032295;28;20440;-70
2020/12/11 10:47:00;;;;;;;34.20;16.33;;;2.70;99.90;;;;;;5037518;28;20448;-70
2020/12/11 10:49:28;;;;;;;40.23;16.33;;;2.70;99.90;;;;;;5038515;28;20460;-71
2020/12/11 10:51:54;;;;;;;37.00;16.10;;;2.70;99.90;;;;;;5037562;28;21110;-71
2020/12/11 10:54:26;;;;;;;35.20;15.07;;;2.70;99.90;;;;;;5038479;28;20487;-73
2020/12/11 10:56:53;;;;;;;36.33;16.50;;;2.80;99.90;;;;;;5038391;28;20499;-70
2020/12/11 10:59:20;;;;;;;40.00;17.00;;;2.80;99.90;;;;;;5037996;28;20531;-71
2020/12/11 11:01:48;;;;;;;35.27;17.77;;;2.80;99.90;;;;;;5038737;28;20468;-69
2020/12/11 11:04:15;;;;;;;43.47;20.20;;;2.80;99.90;;;;;;5039231;28;20503;-70
2020/12/11 11:06:46;;;;;;;37.83;15.47;;;2.80;99.90;;;;;;5039495;28;20534;-70
2020/12/11 11:09:29;;;;;;;36.37;16.90;;;2.80;99.90;;;;;;5024696;28;20444;-72
2020/12/11 11:12:05;;;;;;;40.07;15.93;;;2.70;99.90;;;;;;5026810;28;20459;-72
2020/12/11 11:14:54;;;;;;;38.40;17.27;;;2.70;99.90;;;;;;5031532;28;20421;-70
2020/12/11 11:23:14;;;;;;;37.33;15.97;;;2.80;99.90;;;;;;5002395;28;20872;-72
2020/12/11 11:28:25;;;;;;;32.90;19.40;;;2.70;99.90;;;;;;5004865;28;20500;-71
2020/12/11 11:30:52;;;;;;;31.27;14.90;;;2.70;99.90;;;;;;5019776;28;20515;-71
2020/12/11 11:33:19;;;;;;;34.70;17.63;;;2.80;99.90;;;;;;5020008;28;20835;-71
2020/12/11 11:35:49;;;;;;;36.37;15.50;;;2.80;99.90;;;;;;5020929;28;20926;-72
2020/12/11 11:38:16;;;;;;;32.20;14.83;;;2.80;99.90;;;;;;5024354;28;20449;-71
2020/12/11 11:40:43;;;;;;;39.13;16.90;;;2.80;99.90;;;;;;5039000;28;20480;-70
2020/12/11 11:43:12;;;;;;;36.40;15.73;;;2.80;99.90;;;;;;5038551;28;20483;-72
2020/12/11 11:45:40;;;;;;;34.27;16.33;;;2.90;99.90;;;;;;5038451;28;20543;-71
2020/12/11 11:48:09;;;;;;;36.17;17.00;;;2.90;99.90;;;;;;5039329;28;20548;-71
2020/12/11 11:50:46;;;;;;;40.47;15.90;;;2.80;99.90;;;;;;5039035;28;20527;-71
2020/12/11 11:53:15;;;;;;;31.03;15.97;;;2.80;99.90;;;;;;5039310;28;20478;-71
2020/12/11 11:55:42;;;;;;;32.93;16.93;;;2.80;99.90;;;;;;5040510;28;20459;-71
2020/12/11 11:58:09;;;;;;;33.73;14.80;;;2.90;99.90;;;;;;5040665;28;20468;-72
2020/12/11 12:00:36;;;;;;;38.03;15.83;;;2.80;99.90;;;;;;5040040;28;20463;-72
2020/12/11 12:03:04;;;;;;;40.40;16.30;;;2.80;99.90;;;;;;5039104;28;20495;-72
2020/12/11 12:05:31;;;;;;;36.93;15.20;;;2.90;99.90;;;;;;5016954;28;20472;-71
2020/12/11 12:07:58;;;;;;;34.30;17.67;;;2.80;99.90;;;;;;5014933;28;20503;-71
2020/12/11 12:10:26;;;;;;;38.87;18.63;;;2.90;99.90;;;;;;5014797;28;20485;-71
2020/12/11 12:12:53;;;;;;;37.30;15.70;;;2.90;99.90;;;;;;5014523;28;20779;-71
2020/12/11 12:15:22;;;;;;;35.43;16.60;;;2.90;99.90;;;;;;5015015;28;20481;-73
2020/12/11 12:17:54;;;;;;;40.80;17.77;;;2.90;99.90;;;;;;5014628;28;20460;-71
2020/12/11 12:20:30;;;;;;;35.67;17.80;;;3.00;99.90;;;;;;5014969;28;20821;-71
2020/12/11 12:23:42;;;;;;;42.27;19.90;;;3.00;99.90;;;;;;5014411;28;20993;-71
2020/12/11 12:28:54;;;;;;;43.97;18.60;;;3.20;99.90;;;;;;5014941;28;20548;-71
2020/12/11 12:31:25;;;;;;;40.60;19.17;;;3.20;99.90;;;;;;5015378;28;20499;-72
2020/12/11 12:36:54;;;;;;;36.30;17.40;;;3.20;99.90;;;;;;5015787;28;20406;-72
2020/12/11 12:39:39;;;;;;;53.40;19.97;;;3.20;99.90;;;;;;5015756;28;20418;-72
2020/12/11 12:42:35;;;;;;;39.40;18.77;;;3.20;99.90;;;;;;5015874;28;20426;-72
2020/12/11 12:45:02;;;;;;;45.17;19.20;;;3.30;99.90;;;;;;5015672;28;20444;-73
2020/12/11 12:47:29;;;;;;;43.43;18.70;;;3.40;99.90;;;;;;5014959;28;20456;-71
2020/12/11 12:49:55;;;;;;;44.97;19.60;;;3.40;99.90;;;;;;5019198;28;20514;-72
2020/12/11 12:52:23;;;;;;;40.30;18.97;;;3.40;99.90;;;;;;5039169;28;20456;-71
2020/12/11 12:54:50;;;;;;;50.87;18.50;;;3.50;99.90;;;;;;5033906;28;20456;-72
2020/12/11 12:57:19;;;;;;;52.77;20.33;;;3.50;99.90;;;;;;5034049;28;20476;-73
2020/12/11 12:59:52;;;;;;;44.73;19.87;;;3.50;99.90;;;;;;5033834;28;20506;-72
2020/12/11 13:02:36;;;;;;;37.23;16.90;;;3.50;99.90;;;;;;5034471;28;20456;-72
2020/12/11 13:05:07;;;;;;;38.53;18.83;;;3.50;99.90;;;;;;5033767;28;20452;-72
2020/12/11 13:07:36;;;;;;;49.90;20.07;;;3.50;99.90;;;;;;5034145;28;20814;-72